createdAt,value
2017-05-30T00:00:23.947Z,69.40
2017-05-30T00:02:52.314Z,69.10
2017-05-30T00:05:20.726Z,69.40
2017-05-30T00:07:49.124Z,69.40
2017-05-30T00:10:17.705Z,69.50
2017-05-30T00:12:46.128Z,69.60
2017-05-30T00:15:14.736Z,69.80
2017-05-30T00:17:43.172Z,70.10
2017-05-30T00:20:11.626Z,70.20
2017-05-30T00:22:40.059Z,70.50
2017-05-30T00:25:08.487Z,70.60
2017-05-30T00:27:36.860Z,70.40
2017-05-30T00:30:05.251Z,70.70
2017-05-30T00:32:33.634Z,70.60
2017-05-30T00:35:01.991Z,70.50
2017-05-30T00:37:30.402Z,70.30
2017-05-30T00:39:58.787Z,70.50
2017-05-30T00:42:27.155Z,70.00
2017-05-30T00:44:55.545Z,70.70
2017-05-30T00:47:23.923Z,69.70
2017-05-30T00:49:52.311Z,69.80
2017-05-30T00:52:20.719Z,69.70
2017-05-30T00:54:49.091Z,69.50
2017-05-30T00:57:17.472Z,69.10
2017-05-30T00:59:45.868Z,69.40
2017-05-30T01:02:14.237Z,69.40
2017-05-30T01:04:42.650Z,70.00
2017-05-30T01:07:11.030Z,69.90
2017-05-30T01:09:39.392Z,69.30
2017-05-30T01:12:08.771Z,69.60
2017-05-30T01:14:37.135Z,69.80
2017-05-30T01:17:05.497Z,70.20
2017-05-30T01:19:33.868Z,70.80
2017-05-30T01:22:02.241Z,71.70
2017-05-30T01:24:30.640Z,71.90
2017-05-30T01:26:59.002Z,72.40
2017-05-30T01:29:27.413Z,72.80
2017-05-30T01:31:55.796Z,73.30
2017-05-30T01:34:24.156Z,74.00
2017-05-30T01:36:52.525Z,74.20
2017-05-30T01:39:21.114Z,74.50
2017-05-30T01:41:49.583Z,74.80
2017-05-30T01:44:17.959Z,75.00
2017-05-30T01:46:46.333Z,75.20
2017-05-30T01:49:14.848Z,75.50
2017-05-30T01:51:43.252Z,75.70
2017-05-30T01:54:11.802Z,75.50
2017-05-30T01:56:40.507Z,76.40
2017-05-30T01:59:08.940Z,76.30
2017-05-30T02:01:37.344Z,76.50
2017-05-30T02:04:04.968Z,76.50
2017-05-30T02:06:33.358Z,76.60
2017-05-30T02:09:01.710Z,76.00
2017-05-30T02:11:30.075Z,75.50
2017-05-30T02:13:58.474Z,74.80
2017-05-30T02:16:26.902Z,74.90
2017-05-30T02:18:55.275Z,74.40
2017-05-30T02:21:23.626Z,74.60
2017-05-30T02:23:51.997Z,74.30
2017-05-30T02:26:20.379Z,74.00
2017-05-30T02:28:48.736Z,73.60
2017-05-30T02:31:17.107Z,73.40
2017-05-30T02:33:45.568Z,73.10
2017-05-30T02:36:13.922Z,73.00
2017-05-30T02:38:42.274Z,73.00
2017-05-30T02:41:10.661Z,72.80
2017-05-30T02:43:39.028Z,73.10
2017-05-30T02:46:08.610Z,73.70
2017-05-30T02:48:37.051Z,73.60
2017-05-30T02:51:05.412Z,73.70
2017-05-30T02:53:33.960Z,74.00
2017-05-30T02:56:02.326Z,74.60
2017-05-30T02:58:30.688Z,75.10
2017-05-30T03:00:59.152Z,75.40
2017-05-30T03:03:27.552Z,75.80
2017-05-30T03:05:55.913Z,76.00
2017-05-30T03:08:23.521Z,76.00
2017-05-30T03:10:51.930Z,76.70
2017-05-30T03:13:19.512Z,76.50
2017-05-30T03:15:47.874Z,76.60
2017-05-30T03:18:16.292Z,76.60
2017-05-30T03:20:44.647Z,76.90
2017-05-30T03:23:13.004Z,76.60
2017-05-30T03:25:41.417Z,76.80
2017-05-30T03:28:09.039Z,76.70
2017-05-30T03:30:37.611Z,77.20
2017-05-30T03:33:05.974Z,77.30
2017-05-30T03:35:34.536Z,77.50
2017-05-30T03:38:02.890Z,77.80
2017-05-30T03:40:31.264Z,78.00
2017-05-30T03:42:58.945Z,77.90
2017-05-30T03:45:27.301Z,78.20
2017-05-30T03:47:55.664Z,78.20
2017-05-30T03:50:24.043Z,78.00
2017-05-30T03:52:51.663Z,77.90
2017-05-30T03:55:20.072Z,77.20
2017-05-30T03:57:48.644Z,76.60
2017-05-30T04:00:17.046Z,76.50
2017-05-30T04:02:45.628Z,76.40
2017-05-30T04:05:14.072Z,76.10
2017-05-30T04:07:42.433Z,76.10
2017-05-30T04:10:10.861Z,76.00
2017-05-30T04:12:39.262Z,75.90
2017-05-30T04:15:07.735Z,76.00
2017-05-30T04:17:36.139Z,76.20
2017-05-30T04:20:04.531Z,76.60
2017-05-30T04:22:32.903Z,76.80
2017-05-30T04:25:01.271Z,76.90
2017-05-30T04:27:29.667Z,76.50
2017-05-30T04:29:58.061Z,76.10
2017-05-30T04:32:26.435Z,76.00
2017-05-30T04:34:54.946Z,76.30
2017-05-30T04:37:23.300Z,76.10
2017-05-30T04:39:51.688Z,76.20
2017-05-30T04:42:20.076Z,76.20
2017-05-30T04:44:48.436Z,75.90
2017-05-30T04:47:16.795Z,75.10
2017-05-30T04:49:45.176Z,74.80
2017-05-30T04:52:13.528Z,74.70
2017-05-30T04:54:41.900Z,72.70
2017-05-30T04:57:10.302Z,70.10
2017-05-30T04:59:38.671Z,67.00
2017-05-30T05:02:06.277Z,66.90
2017-05-30T05:04:34.638Z,64.90
2017-05-30T05:07:03.012Z,64.40
2017-05-30T05:09:31.370Z,65.10
2017-05-30T05:11:59.711Z,65.70
2017-05-30T05:14:28.087Z,66.20
2017-05-30T05:16:56.438Z,65.80
2017-05-30T05:19:25.051Z,64.20
2017-05-30T05:21:53.423Z,61.70
2017-05-30T05:24:21.786Z,60.50
2017-05-30T05:26:50.182Z,60.30
2017-05-30T05:29:18.599Z,61.10
2017-05-30T05:31:47.012Z,62.90
2017-05-30T05:34:15.410Z,62.80
2017-05-30T05:36:43.774Z,64.00
2017-05-30T05:39:12.173Z,64.40
2017-05-30T05:41:40.583Z,63.00
2017-05-30T05:44:08.963Z,61.40
2017-05-30T05:46:37.410Z,59.00
2017-05-30T05:49:05.768Z,56.70
2017-05-30T05:51:34.149Z,54.90
2017-05-30T05:54:02.571Z,54.80
2017-05-30T05:56:30.964Z,52.10
2017-05-30T05:58:59.391Z,49.50
2017-05-30T06:01:27.038Z,49.50
2017-05-30T06:03:55.415Z,46.40
2017-05-30T06:06:23.824Z,44.80
2017-05-30T06:08:52.239Z,44.50
2017-05-30T06:11:20.601Z,43.80
2017-05-30T06:13:49.013Z,45.00
2017-05-30T06:16:17.453Z,44.10
2017-05-30T06:18:45.847Z,42.30
2017-05-30T06:21:14.264Z,41.70
2017-05-30T06:23:42.707Z,41.30
2017-05-30T06:26:11.122Z,41.40
2017-05-30T06:28:39.577Z,42.40
2017-05-30T06:31:07.984Z,43.20
2017-05-30T06:33:36.399Z,43.10
2017-05-30T06:36:04.882Z,45.20
2017-05-30T06:38:33.267Z,45.30
2017-05-30T06:41:01.700Z,46.40
2017-05-30T06:43:30.152Z,48.30
2017-05-30T06:45:58.552Z,48.70
2017-05-30T06:48:26.971Z,47.70
2017-05-30T06:50:55.459Z,47.80
2017-05-30T06:53:23.887Z,45.50
2017-05-30T06:55:52.382Z,44.40
2017-05-30T06:58:20.023Z,44.40
2017-05-30T07:00:48.437Z,45.20
2017-05-30T07:03:16.939Z,46.30
2017-05-30T07:05:44.632Z,46.30
2017-05-30T07:08:13.139Z,48.20
2017-05-30T07:10:41.579Z,49.30
2017-05-30T07:13:09.278Z,49.20
2017-05-30T07:15:36.980Z,49.70
2017-05-30T07:18:05.368Z,50.00
2017-05-30T07:20:33.003Z,49.90
2017-05-30T07:23:00.624Z,49.60
2017-05-30T07:25:28.378Z,50.90
2017-05-30T07:27:56.740Z,50.20
2017-05-30T07:30:25.132Z,46.10
2017-05-30T07:32:53.509Z,42.30
2017-05-30T07:35:21.928Z,41.90
2017-05-30T07:37:50.285Z,39.00
2017-05-30T07:40:18.659Z,39.60
2017-05-30T07:42:47.081Z,37.70
2017-05-30T07:45:15.497Z,38.80
2017-05-30T07:47:43.864Z,35.80
2017-05-30T07:50:12.269Z,34.60
2017-05-30T07:52:40.769Z,33.10
2017-05-30T07:55:09.253Z,31.70
2017-05-30T07:57:37.685Z,32.30
2017-05-30T08:00:06.136Z,33.50
2017-05-30T08:02:34.634Z,33.70
2017-05-30T08:05:04.160Z,33.60
2017-05-30T08:07:32.608Z,34.50
2017-05-30T08:10:01.070Z,34.10
2017-05-30T08:12:29.469Z,34.10
2017-05-30T08:14:57.871Z,31.70
2017-05-30T08:17:26.276Z,31.90
2017-05-30T08:19:54.725Z,31.60
2017-05-30T08:22:23.156Z,31.70
2017-05-30T08:24:51.575Z,31.10
2017-05-30T08:27:19.980Z,31.40
2017-05-30T08:29:48.368Z,32.30
2017-05-30T08:32:16.758Z,30.70
2017-05-30T08:34:45.203Z,30.60
2017-05-30T08:37:13.582Z,32.30
2017-05-30T08:39:42.024Z,32.10
2017-05-30T08:42:10.451Z,31.20
2017-05-30T08:44:38.899Z,30.40
2017-05-30T08:47:07.327Z,29.60
2017-05-30T08:49:35.760Z,28.30
2017-05-30T08:52:04.249Z,29.10
2017-05-30T08:54:32.665Z,31.30
2017-05-30T08:57:01.258Z,31.00
2017-05-30T08:59:29.725Z,32.80
2017-05-30T09:01:57.357Z,32.90
2017-05-30T09:04:25.782Z,34.20
2017-05-30T09:06:54.252Z,33.90
2017-05-30T09:09:22.692Z,34.30
2017-05-30T09:11:51.090Z,34.40
2017-05-30T09:14:19.560Z,33.60
2017-05-30T09:16:47.989Z,33.90
2017-05-30T09:19:16.461Z,35.70
2017-05-30T09:21:44.873Z,36.20
2017-05-30T09:24:13.290Z,37.40
2017-05-30T09:26:41.700Z,37.70
2017-05-30T09:29:10.108Z,36.90
2017-05-30T09:31:38.585Z,36.80
2017-05-30T09:34:07.042Z,36.50
2017-05-30T09:36:35.491Z,37.50
2017-05-30T09:39:04.825Z,37.40
2017-05-30T09:41:33.313Z,36.80
2017-05-30T09:44:01.784Z,36.10
2017-05-30T09:46:30.211Z,37.60
2017-05-30T09:48:58.612Z,34.60
2017-05-30T09:51:27.000Z,35.60
2017-05-30T09:53:55.426Z,38.00
2017-05-30T09:56:23.826Z,34.70
2017-05-30T09:58:52.267Z,36.50
2017-05-30T10:01:20.678Z,36.70
2017-05-30T10:03:49.076Z,37.40
2017-05-30T10:06:17.559Z,37.20
2017-05-30T10:08:45.203Z,37.10
2017-05-30T10:11:13.639Z,37.40
2017-05-30T10:13:42.113Z,39.20
2017-05-30T10:16:10.613Z,37.40
2017-05-30T10:18:39.202Z,36.80
2017-05-30T10:21:07.654Z,38.60
2017-05-30T10:23:36.037Z,40.20
2017-05-30T10:26:04.463Z,41.20
2017-05-30T10:28:32.998Z,39.40
2017-05-30T10:31:01.489Z,39.40
2017-05-30T10:33:30.243Z,39.50
2017-05-30T10:35:58.687Z,39.30
2017-05-30T10:38:27.139Z,38.30
2017-05-30T10:40:56.287Z,38.60
2017-05-30T10:43:24.674Z,37.70
2017-05-30T10:45:53.116Z,38.40
2017-05-30T10:48:21.523Z,38.30
2017-05-30T10:50:49.153Z,38.20
2017-05-30T10:53:17.575Z,39.90
2017-05-30T10:55:45.191Z,39.80
2017-05-30T10:58:13.677Z,38.70
2017-05-30T11:00:42.046Z,38.60
2017-05-30T11:03:10.415Z,41.30
2017-05-30T11:05:38.866Z,40.50
2017-05-30T11:08:07.232Z,40.90
2017-05-30T11:10:34.845Z,40.90
2017-05-30T11:13:03.267Z,41.20
2017-05-30T11:15:30.876Z,41.20
2017-05-30T11:17:59.243Z,41.80
2017-05-30T11:20:27.683Z,42.90
2017-05-30T11:22:56.084Z,42.90
2017-05-30T11:25:24.458Z,42.10
2017-05-30T11:27:52.850Z,40.90
2017-05-30T11:30:21.338Z,39.40
2017-05-30T11:32:49.690Z,39.70
2017-05-30T11:35:18.098Z,40.60
2017-05-30T11:37:46.462Z,42.90
2017-05-30T11:40:14.941Z,44.70
2017-05-30T11:42:43.333Z,48.60
2017-05-30T11:45:11.701Z,50.50
2017-05-30T11:47:40.072Z,52.70
2017-05-30T11:50:08.443Z,55.00
2017-05-30T11:52:36.811Z,53.60
2017-05-30T11:55:05.179Z,52.90
2017-05-30T11:57:33.614Z,49.90
2017-05-30T12:00:02.200Z,48.70
2017-05-30T12:02:30.611Z,51.00
2017-05-30T12:04:59.000Z,51.50
2017-05-30T12:07:27.356Z,51.60
2017-05-30T12:09:55.886Z,53.50
2017-05-30T12:12:24.260Z,53.40
2017-05-30T12:14:52.626Z,53.70
2017-05-30T12:17:21.006Z,53.90
2017-05-30T12:19:49.395Z,52.00
2017-05-30T12:22:17.782Z,50.80
2017-05-30T12:24:46.185Z,49.30
2017-05-30T12:27:14.807Z,48.20
2017-05-30T12:29:43.214Z,49.10
2017-05-30T12:32:10.838Z,49.70
2017-05-30T12:34:39.232Z,53.70
2017-05-30T12:37:07.599Z,49.80
2017-05-30T12:39:35.942Z,49.00
2017-05-30T12:42:04.351Z,48.60
2017-05-30T12:44:32.713Z,48.60
2017-05-30T12:47:01.065Z,50.40
2017-05-30T12:49:29.475Z,55.00
2017-05-30T12:51:57.848Z,57.70
2017-05-30T12:54:26.242Z,57.40
2017-05-30T12:56:54.620Z,57.10
2017-05-30T12:59:22.987Z,55.80
2017-05-30T13:01:51.368Z,56.20
2017-05-30T13:04:19.030Z,56.10
2017-05-30T13:06:47.419Z,55.90
2017-05-30T13:09:15.071Z,55.80
2017-05-30T13:11:43.438Z,51.80
2017-05-30T13:14:11.847Z,52.20
2017-05-30T13:16:40.238Z,52.20
2017-05-30T13:19:08.609Z,51.20
2017-05-30T13:21:36.989Z,52.10
2017-05-30T13:24:05.356Z,52.50
2017-05-30T13:26:33.716Z,53.20
2017-05-30T13:29:02.103Z,53.00
2017-05-30T13:31:30.490Z,52.40
2017-05-30T13:33:58.859Z,53.50
2017-05-30T13:36:27.269Z,52.10
2017-05-30T13:38:54.858Z,52.00
2017-05-30T13:41:23.220Z,50.90
2017-05-30T13:43:51.628Z,51.50
2017-05-30T13:46:20.023Z,51.90
2017-05-30T13:48:48.383Z,51.30
2017-05-30T13:51:16.756Z,51.40
2017-05-30T13:53:45.160Z,51.40
2017-05-30T13:56:13.561Z,51.70
2017-05-30T13:58:41.935Z,51.90
2017-05-30T14:01:10.367Z,52.70
2017-05-30T14:03:38.771Z,54.00
2017-05-30T14:06:07.203Z,55.20
2017-05-30T14:08:35.603Z,55.10
2017-05-30T14:11:03.967Z,56.30
2017-05-30T14:13:32.342Z,56.40
2017-05-30T14:16:00.743Z,55.80
2017-05-30T14:18:29.103Z,56.50
2017-05-30T14:20:57.493Z,54.90
2017-05-30T14:23:25.876Z,54.90
2017-05-30T14:25:54.244Z,54.40
2017-05-30T14:28:22.624Z,55.00
2017-05-30T14:30:51.014Z,56.40
2017-05-30T14:33:19.384Z,58.10
2017-05-30T14:35:47.759Z,59.90
2017-05-30T14:38:16.134Z,60.00
2017-05-30T14:40:44.509Z,60.30
2017-05-30T14:43:12.915Z,59.90
2017-05-30T14:45:41.287Z,59.80
2017-05-30T14:48:09.700Z,59.10
2017-05-30T14:50:38.327Z,58.40
2017-05-30T14:53:06.778Z,57.10
2017-05-30T14:55:35.603Z,56.30
2017-05-30T14:58:03.980Z,55.90
2017-05-30T15:00:32.385Z,56.00
2017-05-30T15:02:59.991Z,55.90
2017-05-30T15:05:28.381Z,55.40
2017-05-30T15:07:56.846Z,54.00
2017-05-30T15:10:25.206Z,53.60
2017-05-30T15:12:53.623Z,53.10
2017-05-30T15:15:22.231Z,53.80
2017-05-30T15:17:50.602Z,55.10
2017-05-30T15:20:19.002Z,53.70
2017-05-30T15:22:47.359Z,54.50
2017-05-30T15:25:15.739Z,53.60
2017-05-30T15:27:44.157Z,54.50
2017-05-30T15:30:12.614Z,54.00
2017-05-30T15:32:41.035Z,55.10
2017-05-30T15:35:09.398Z,54.10
2017-05-30T15:37:37.809Z,54.90
2017-05-30T15:40:06.215Z,55.10
2017-05-30T15:42:34.588Z,55.30
2017-05-30T15:45:03.050Z,53.50
2017-05-30T15:47:31.420Z,53.40
2017-05-30T15:49:58.998Z,53.30
2017-05-30T15:52:27.346Z,54.60
2017-05-30T15:54:55.718Z,53.90
2017-05-30T15:57:24.063Z,54.50
2017-05-30T15:59:52.446Z,53.20
2017-05-30T16:02:21.153Z,50.70
2017-05-30T16:04:49.818Z,50.90
2017-05-30T16:07:18.236Z,52.20
2017-05-30T16:09:46.611Z,51.40
2017-05-30T16:12:14.975Z,51.40
2017-05-30T16:14:43.360Z,51.40
2017-05-30T16:17:11.717Z,51.60
2017-05-30T16:19:40.312Z,48.80
2017-05-30T16:22:09.124Z,49.40
2017-05-30T16:24:37.499Z,49.80
2017-05-30T16:27:05.868Z,49.90
2017-05-30T16:29:34.225Z,49.30
2017-05-30T16:32:02.624Z,50.30
2017-05-30T16:34:31.004Z,50.10
2017-05-30T16:36:59.379Z,50.10
2017-05-30T16:39:27.739Z,49.90
2017-05-30T16:41:56.378Z,50.30
2017-05-30T16:44:25.529Z,50.40
2017-05-30T16:46:53.976Z,50.60
2017-05-30T16:49:22.365Z,50.20
2017-05-30T16:51:50.700Z,50.40
2017-05-30T16:54:19.074Z,50.90
2017-05-30T16:56:47.458Z,51.10
2017-05-30T16:59:15.810Z,51.60
2017-05-30T17:01:44.159Z,51.80
2017-05-30T17:04:12.544Z,51.80
2017-05-30T17:06:40.905Z,51.90
2017-05-30T17:09:09.274Z,52.10
2017-05-30T17:11:37.630Z,51.50
2017-05-30T17:14:06.015Z,50.80
2017-05-30T17:16:34.387Z,49.10
2017-05-30T17:19:02.753Z,48.80
2017-05-30T17:21:31.237Z,47.20
2017-05-30T17:23:59.621Z,47.20
2017-05-30T17:26:28.012Z,48.40
2017-05-30T17:28:56.409Z,49.20
2017-05-30T17:31:24.771Z,50.10
2017-05-30T17:33:53.294Z,50.30
2017-05-30T17:36:21.713Z,51.20
2017-05-30T17:38:50.050Z,51.60
2017-05-30T17:41:18.415Z,51.70
2017-05-30T17:43:46.787Z,52.20
2017-05-30T17:46:15.156Z,52.80
2017-05-30T17:48:43.531Z,53.90
2017-05-30T17:51:11.918Z,55.00
2017-05-30T17:53:40.315Z,54.20
2017-05-30T17:56:08.684Z,55.00
2017-05-30T17:58:37.057Z,55.70
2017-05-30T18:01:05.428Z,55.70
2017-05-30T18:03:34.019Z,55.30
2017-05-30T18:06:02.400Z,54.40
2017-05-30T18:08:30.788Z,54.50
2017-05-30T18:10:59.166Z,54.70
2017-05-30T18:13:27.533Z,54.40
2017-05-30T18:15:55.972Z,54.40
2017-05-30T18:18:24.351Z,54.90
2017-05-30T18:20:52.718Z,55.10
2017-05-30T18:23:21.142Z,55.70
2017-05-30T18:25:49.506Z,55.80
2017-05-30T18:28:17.970Z,56.80
2017-05-30T18:30:46.333Z,56.50
2017-05-30T18:33:14.711Z,56.90
2017-05-30T18:35:43.084Z,56.70
2017-05-30T18:38:11.454Z,56.20
2017-05-30T18:40:39.852Z,56.20
2017-05-30T18:43:08.203Z,56.40
2017-05-30T18:45:36.585Z,56.10
2017-05-30T18:48:05.027Z,56.70
2017-05-30T18:50:33.420Z,56.80
2017-05-30T18:53:01.783Z,57.00
2017-05-30T18:55:30.220Z,57.10
2017-05-30T18:57:58.622Z,57.60
2017-05-30T19:00:26.275Z,57.60
2017-05-30T19:02:54.684Z,57.90
2017-05-30T19:05:23.094Z,58.00
2017-05-30T19:07:51.475Z,58.40
2017-05-30T19:10:20.815Z,58.00
2017-05-30T19:12:49.245Z,58.30
2017-05-30T19:15:18.076Z,58.40
2017-05-30T19:17:46.488Z,58.10
2017-05-30T19:20:16.134Z,58.10
2017-05-30T19:22:44.581Z,58.30
2017-05-30T19:25:13.056Z,58.50
2017-05-30T19:27:43.128Z,58.40
2017-05-30T19:30:15.103Z,58.90
2017-05-30T19:32:43.630Z,58.80
2017-05-30T19:35:12.124Z,58.90
2017-05-30T19:37:40.605Z,59.10
2017-05-30T19:40:09.262Z,58.60
2017-05-30T19:42:37.180Z,58.40
2017-05-30T19:45:06.291Z,57.80
2017-05-30T19:47:35.145Z,58.30
2017-05-30T19:50:03.896Z,58.00
2017-05-30T19:52:33.817Z,58.00
2017-05-30T19:55:01.640Z,58.50
2017-05-30T19:57:31.290Z,58.40
2017-05-30T19:59:59.641Z,58.30
2017-05-30T20:02:29.081Z,58.00
2017-05-30T20:04:58.438Z,58.30
2017-05-30T20:07:28.259Z,58.50
2017-05-30T20:09:58.922Z,58.80
2017-05-30T20:12:27.845Z,58.50
2017-05-30T20:14:58.392Z,58.40
2017-05-30T20:17:28.512Z,58.00
2017-05-30T20:19:57.740Z,57.70
2017-05-30T20:22:27.036Z,57.80
2017-05-30T20:24:57.425Z,57.80
2017-05-30T20:27:27.147Z,58.20
2017-05-30T20:29:55.791Z,58.30
2017-05-30T20:32:24.481Z,58.50
2017-05-30T20:34:53.713Z,58.30
2017-05-30T20:37:22.148Z,58.20
2017-05-30T20:39:49.840Z,58.10
2017-05-30T20:42:17.543Z,58.40
2017-05-30T20:44:45.231Z,58.70
2017-05-30T20:47:13.693Z,58.70
2017-05-30T20:49:42.175Z,58.20
2017-05-30T20:52:10.653Z,58.60
2017-05-30T20:54:39.094Z,58.20
2017-05-30T20:57:07.679Z,57.60
2017-05-30T20:59:36.138Z,57.80
2017-05-30T21:02:03.852Z,57.80
2017-05-30T21:04:32.368Z,58.10
2017-05-30T21:07:00.821Z,57.90
2017-05-30T21:09:29.289Z,57.80
2017-05-30T21:11:57.796Z,57.30
2017-05-30T21:14:26.293Z,57.20
2017-05-30T21:16:54.924Z,57.40
2017-05-30T21:19:23.445Z,57.30
2017-05-30T21:21:51.950Z,56.90
2017-05-30T21:24:20.429Z,57.00
2017-05-30T21:26:48.894Z,57.30
2017-05-30T21:29:17.350Z,56.90
2017-05-30T21:31:45.848Z,57.30
2017-05-30T21:34:14.343Z,57.30
2017-05-30T21:36:42.832Z,57.70
2017-05-30T21:39:10.513Z,57.70
2017-05-30T21:41:38.959Z,57.60
2017-05-30T21:44:07.418Z,58.00
2017-05-30T21:46:35.972Z,58.30
2017-05-30T21:49:04.459Z,58.40
2017-05-30T21:51:32.952Z,58.60
2017-05-30T21:54:01.407Z,58.70
2017-05-30T21:56:29.851Z,59.40
2017-05-30T21:58:58.317Z,58.90
2017-05-30T22:01:26.893Z,58.90
2017-05-30T22:03:55.364Z,59.00
2017-05-30T22:06:23.806Z,58.90
2017-05-30T22:08:52.288Z,58.70
2017-05-30T22:11:20.773Z,58.60
2017-05-30T22:13:49.219Z,58.80
2017-05-30T22:16:18.131Z,59.20
2017-05-30T22:18:46.637Z,58.70
2017-05-30T22:21:15.122Z,58.90
2017-05-30T22:23:43.594Z,58.40
2017-05-30T22:26:12.082Z,58.70
2017-05-30T22:28:40.551Z,58.90
2017-05-30T22:31:09.062Z,58.50
2017-05-30T22:33:37.512Z,58.90
2017-05-30T22:36:06.030Z,59.00
2017-05-30T22:38:34.515Z,59.00
2017-05-30T22:41:02.199Z,59.00
2017-05-30T22:43:30.688Z,59.00
2017-05-30T22:45:59.139Z,59.30
2017-05-30T22:48:27.668Z,59.40
2017-05-30T22:50:56.156Z,59.40
2017-05-30T22:53:24.670Z,59.70
2017-05-30T22:55:53.160Z,60.30
2017-05-30T22:58:21.637Z,60.30
2017-05-30T23:00:50.141Z,60.40
2017-05-30T23:03:18.634Z,60.00
2017-05-30T23:05:47.096Z,60.70
2017-05-30T23:08:15.636Z,60.90
2017-05-30T23:10:44.172Z,61.20
2017-05-30T23:13:12.627Z,61.70
2017-05-30T23:15:41.061Z,61.80
2017-05-30T23:18:09.529Z,62.10
2017-05-30T23:20:38.008Z,62.30
2017-05-30T23:23:06.421Z,63.40
2017-05-30T23:25:34.865Z,63.20
2017-05-30T23:28:03.335Z,63.60
2017-05-30T23:30:31.769Z,63.70
2017-05-30T23:33:00.237Z,63.90
2017-05-30T23:35:28.691Z,64.60
2017-05-30T23:37:57.169Z,64.10
2017-05-30T23:40:25.647Z,64.70
2017-05-30T23:42:54.087Z,64.90
2017-05-30T23:45:22.527Z,65.30
2017-05-30T23:47:50.962Z,65.10
2017-05-30T23:50:19.424Z,65.80
2017-05-30T23:52:47.887Z,65.60
2017-05-30T23:55:16.349Z,65.70
2017-05-30T23:57:44.799Z,66.00
